createdAt,value
2023-03-21T00:01:34.640Z,34.40
2023-03-21T00:04:06.590Z,34.30
2023-03-21T00:06:43.018Z,34.30
2023-03-21T00:09:17.950Z,34.30
2023-03-21T00:11:56.990Z,34.30
2023-03-21T00:14:33.140Z,34.30
2023-03-21T00:17:08.681Z,34.30
2023-03-21T00:19:43.519Z,34.20
2023-03-21T00:22:19.586Z,34.30
2023-03-21T00:24:54.501Z,34.30
2023-03-21T00:27:49.903Z,34.30
2023-03-21T00:30:23.544Z,34.40
2023-03-21T00:32:56.989Z,34.30
2023-03-21T00:38:27.453Z,34.30
2023-03-21T00:41:04.585Z,34.30
2023-03-21T00:43:43.924Z,34.30
2023-03-21T00:46:19.667Z,34.30
2023-03-21T00:48:55.987Z,34.40
2023-03-21T00:51:32.967Z,34.30
2023-03-21T00:54:06.536Z,34.30
2023-03-21T00:56:38.597Z,34.30
2023-03-21T00:59:12.899Z,34.30
2023-03-21T01:01:45.249Z,34.30
2023-03-21T01:04:22.501Z,34.40
2023-03-21T01:06:59.751Z,34.40
2023-03-21T01:09:33.268Z,34.40
2023-03-21T01:12:08.017Z,34.30
2023-03-21T01:14:42.633Z,34.30
2023-03-21T01:17:17.625Z,34.40
2023-03-21T01:19:52.457Z,34.40
2023-03-21T01:22:27.737Z,34.30
2023-03-21T01:25:19.169Z,34.40
2023-03-21T01:27:53.358Z,34.30
2023-03-21T01:30:41.708Z,34.30
2023-03-21T01:33:14.018Z,34.30
2023-03-21T01:35:55.318Z,34.30
2023-03-21T01:38:36.094Z,34.30
2023-03-21T01:41:19.243Z,34.30
2023-03-21T01:43:53.637Z,34.30
2023-03-21T01:46:51.472Z,34.30
2023-03-21T01:49:36.332Z,34.30
2023-03-21T01:52:26.548Z,34.40
2023-03-21T01:55:03.162Z,34.40
2023-03-21T01:57:58.450Z,34.30
2023-03-21T02:00:37.618Z,34.30
2023-03-21T02:03:29.518Z,34.30
2023-03-21T02:06:13.409Z,34.40
2023-03-21T02:08:48.213Z,34.30
2023-03-21T02:11:23.052Z,34.30
2023-03-21T02:14:05.921Z,34.30
2023-03-21T02:16:50.122Z,34.30
2023-03-21T02:19:53.770Z,34.30
2023-03-21T02:22:59.552Z,34.30
2023-03-21T02:26:10.455Z,34.30
2023-03-21T02:28:51.298Z,34.30
2023-03-21T02:31:43.675Z,34.30
2023-03-21T02:34:48.171Z,34.30
2023-03-21T02:37:38.577Z,34.30
2023-03-21T02:40:18.325Z,34.40
2023-03-21T02:43:09.362Z,34.30
2023-03-21T02:45:53.845Z,34.30
2023-03-21T02:48:44.381Z,34.30
2023-03-21T02:51:25.438Z,34.30
2023-03-21T02:54:26.483Z,34.30
2023-03-21T02:57:05.707Z,34.30
2023-03-21T02:59:44.493Z,34.40
2023-03-21T03:02:28.383Z,34.40
2023-03-21T03:05:11.675Z,34.30
2023-03-21T03:08:07.946Z,34.40
2023-03-21T03:10:50.552Z,34.40
2023-03-21T03:13:48.035Z,34.40
2023-03-21T03:16:29.612Z,34.40
2023-03-21T03:19:07.793Z,34.40
2023-03-21T03:21:48.077Z,34.30
2023-03-21T03:24:26.066Z,34.40
2023-03-21T03:27:10.986Z,34.30
2023-03-21T03:29:48.236Z,34.30
2023-03-21T03:32:27.340Z,34.30
2023-03-21T03:35:02.368Z,34.40
2023-03-21T03:37:38.773Z,34.30
2023-03-21T03:40:15.046Z,34.40
2023-03-21T03:42:54.970Z,34.40
2023-03-21T03:45:38.092Z,34.40
2023-03-21T03:48:28.218Z,34.40
2023-03-21T03:51:08.229Z,34.40
2023-03-21T03:53:47.810Z,34.40
2023-03-21T03:56:22.598Z,34.40
2023-03-21T03:58:57.698Z,34.40
2023-03-21T04:01:30.305Z,34.30
2023-03-21T04:04:13.056Z,34.20
2023-03-21T04:06:47.257Z,34.00
2023-03-21T04:09:25.094Z,34.00
2023-03-21T04:12:06.699Z,33.90
2023-03-21T04:14:46.138Z,33.90
2023-03-21T04:17:23.101Z,33.90
2023-03-21T04:20:02.610Z,34.00
2023-03-21T04:22:42.445Z,33.90
2023-03-21T04:25:21.951Z,34.00
2023-03-21T04:27:58.304Z,34.00
2023-03-21T04:30:35.244Z,34.10
2023-03-21T04:33:09.913Z,34.20
2023-03-21T04:35:45.714Z,34.30
2023-03-21T04:38:17.455Z,34.30
2023-03-21T04:40:49.427Z,34.40
2023-03-21T04:43:22.474Z,34.40
2023-03-21T04:45:57.530Z,34.50
2023-03-21T04:48:29.619Z,34.60
2023-03-21T04:51:03.353Z,34.60
2023-03-21T04:53:39.312Z,34.70
2023-03-21T04:56:13.604Z,34.70
2023-03-21T04:58:47.160Z,34.70
2023-03-21T05:01:22.498Z,34.70
2023-03-21T05:03:54.920Z,34.80
2023-03-21T05:06:27.486Z,34.80
2023-03-21T05:09:00.970Z,34.90
2023-03-21T05:11:39.295Z,34.90
2023-03-21T05:14:15.062Z,35.00
2023-03-21T05:16:54.468Z,35.10
2023-03-21T05:19:35.846Z,35.20
2023-03-21T05:22:13.791Z,35.20
2023-03-21T05:24:51.077Z,35.30
2023-03-21T05:27:35.415Z,35.40
2023-03-21T05:30:10.701Z,35.40
2023-03-21T05:32:44.534Z,35.40
2023-03-21T05:35:17.448Z,35.40
2023-03-21T05:37:49.747Z,35.60
2023-03-21T05:40:22.492Z,35.60
2023-03-21T05:42:57.612Z,35.60
2023-03-21T05:45:29.985Z,35.60
2023-03-21T05:48:03.862Z,35.60
2023-03-21T05:50:35.603Z,35.70
2023-03-21T05:53:08.243Z,35.70
2023-03-21T05:55:45.538Z,35.60
2023-03-21T05:58:19.257Z,35.70
2023-03-21T06:00:50.513Z,35.80
2023-03-21T06:03:24.296Z,35.80
2023-03-21T06:05:56.219Z,36.00
2023-03-21T06:08:28.548Z,36.00
2023-03-21T06:11:01.616Z,36.00
2023-03-21T06:13:34.391Z,36.00
2023-03-21T06:16:06.161Z,36.00
2023-03-21T06:18:40.409Z,36.10
2023-03-21T06:21:12.362Z,36.10
2023-03-21T06:23:46.425Z,36.00
2023-03-21T06:26:20.822Z,36.10
2023-03-21T06:29:26.660Z,36.10
2023-03-21T06:31:58.131Z,36.20
2023-03-21T06:34:30.753Z,36.10
2023-03-21T06:37:04.671Z,36.20
2023-03-21T06:39:36.602Z,36.10
2023-03-21T06:42:08.012Z,36.10
2023-03-21T06:44:39.752Z,36.30
2023-03-21T06:47:11.988Z,36.00
2023-03-21T06:49:49.565Z,36.20
2023-03-21T06:52:21.301Z,36.00
2023-03-21T06:54:54.635Z,36.10
2023-03-21T06:57:28.100Z,36.10
2023-03-21T07:00:02.654Z,36.10
2023-03-21T07:02:34.914Z,36.10
2023-03-21T07:05:08.987Z,36.20
2023-03-21T07:07:40.660Z,36.30
2023-03-21T07:10:14.029Z,36.30
2023-03-21T07:12:47.488Z,36.50
2023-03-21T07:15:20.607Z,36.60
2023-03-21T07:17:51.874Z,36.70
2023-03-21T07:20:27.495Z,36.60
2023-03-21T07:22:57.135Z,36.70
2023-03-21T07:25:28.797Z,36.70
2023-03-21T07:27:59.733Z,36.70
2023-03-21T07:30:31.125Z,36.70
2023-03-21T07:33:05.507Z,36.70
2023-03-21T07:35:39.597Z,36.70
2023-03-21T07:38:17.803Z,36.60
2023-03-21T07:40:50.726Z,36.60
2023-03-21T07:43:22.194Z,36.60
2023-03-21T07:45:54.755Z,36.70
2023-03-21T07:48:26.011Z,37.10
2023-03-21T07:50:59.808Z,36.60
2023-03-21T07:53:31.102Z,36.70
2023-03-21T07:56:02.041Z,36.80
2023-03-21T07:58:34.803Z,36.70
2023-03-21T08:01:06.585Z,36.80
2023-03-21T08:03:38.911Z,36.80
2023-03-21T08:06:14.757Z,36.90
2023-03-21T08:08:45.222Z,36.90
2023-03-21T08:11:16.518Z,37.00
2023-03-21T08:13:49.307Z,37.00
2023-03-21T08:16:20.422Z,37.00
2023-03-21T08:18:51.516Z,36.90
2023-03-21T08:21:26.572Z,36.90
2023-03-21T08:23:57.690Z,36.80
2023-03-21T08:26:29.826Z,36.80
2023-03-21T08:29:00.944Z,37.40
2023-03-21T08:31:34.496Z,36.80
2023-03-21T08:34:04.993Z,36.70
2023-03-21T08:36:40.096Z,36.70
2023-03-21T08:39:10.432Z,36.60
2023-03-21T08:41:41.354Z,36.70
2023-03-21T08:44:14.894Z,36.80
2023-03-21T08:46:49.153Z,36.70
2023-03-21T08:49:19.729Z,36.70
2023-03-21T08:51:52.005Z,36.60
2023-03-21T08:54:23.326Z,36.50
2023-03-21T08:56:55.641Z,36.50
2023-03-21T08:59:28.028Z,36.40
2023-03-21T09:02:01.289Z,36.40
2023-03-21T09:04:32.953Z,36.40
2023-03-21T09:07:06.736Z,36.40
2023-03-21T09:09:37.050Z,36.50
2023-03-21T09:12:08.361Z,36.40
2023-03-21T09:14:38.817Z,36.40
2023-03-21T09:17:11.406Z,36.40
2023-03-21T09:19:43.174Z,36.40
2023-03-21T09:22:18.482Z,36.40
2023-03-21T09:24:52.215Z,36.30
2023-03-21T09:27:23.627Z,36.30
2023-03-21T09:29:55.222Z,36.30
2023-03-21T09:32:27.284Z,36.20
2023-03-21T09:34:58.866Z,36.20
2023-03-21T09:37:33.473Z,36.10
2023-03-21T09:40:03.516Z,36.10
2023-03-21T09:42:44.180Z,36.10
2023-03-21T09:45:23.048Z,36.10
2023-03-21T09:47:55.803Z,36.00
2023-03-21T10:07:19.514Z,35.70
2023-03-21T10:11:41.616Z,35.50
2023-03-21T10:14:19.396Z,35.60
2023-03-21T10:16:53.972Z,35.50
2023-03-21T10:19:30.196Z,35.60
2023-03-21T10:22:03.409Z,35.60
2023-03-21T10:24:39.079Z,35.60
2023-03-21T10:27:14.249Z,35.50
2023-03-21T10:29:47.300Z,35.60
2023-03-21T10:32:19.626Z,35.50
2023-03-21T10:34:53.535Z,35.50
2023-03-21T10:37:25.082Z,35.50
2023-03-21T10:39:58.759Z,35.40
2023-03-21T10:42:34.403Z,35.40
2023-03-21T10:45:16.670Z,35.40
2023-03-21T10:47:52.990Z,35.50
2023-03-21T10:50:32.368Z,35.40
2023-03-21T10:53:07.439Z,35.40
2023-03-21T10:55:45.701Z,35.40
2023-03-21T10:58:25.699Z,35.50
2023-03-21T11:01:00.615Z,35.40
2023-03-21T11:03:34.089Z,35.10
2023-03-21T11:06:10.380Z,35.30
2023-03-21T11:08:48.207Z,35.30
2023-03-21T11:11:29.754Z,35.30
2023-03-21T11:14:08.053Z,35.10
2023-03-21T11:16:43.429Z,35.10
2023-03-21T11:19:21.158Z,35.10
2023-03-21T11:21:53.651Z,35.10
2023-03-21T11:24:24.183Z,34.90
2023-03-21T11:27:02.226Z,35.10
2023-03-21T11:29:40.042Z,34.90
2023-03-21T11:32:15.026Z,35.10
2023-03-21T11:34:50.321Z,35.00
2023-03-21T11:37:24.892Z,34.80
2023-03-21T11:40:00.183Z,34.90
2023-03-21T11:42:35.895Z,34.90
2023-03-21T11:45:15.231Z,34.90
2023-03-21T11:47:47.808Z,34.80
2023-03-21T11:50:23.726Z,34.80
2023-03-21T11:53:14.577Z,34.40
2023-03-21T11:55:59.855Z,34.30
2023-03-21T11:58:55.930Z,34.30
2023-03-21T12:01:35.187Z,34.00
2023-03-21T12:04:20.526Z,33.90
2023-03-21T12:06:56.187Z,33.70
2023-03-21T12:09:40.428Z,33.70
2023-03-21T12:12:38.948Z,33.80
2023-03-21T12:15:20.859Z,33.60
2023-03-21T12:18:08.840Z,33.50
2023-03-21T12:20:43.892Z,33.40
2023-03-21T12:23:40.431Z,33.30
2023-03-21T12:26:24.122Z,33.20
2023-03-21T12:29:06.814Z,33.00
2023-03-21T12:31:53.408Z,33.20
2023-03-21T12:34:45.234Z,33.10
2023-03-21T12:37:27.557Z,32.60
2023-03-21T12:40:09.552Z,32.80
2023-03-21T12:42:54.690Z,32.50
2023-03-21T12:45:34.197Z,32.60
2023-03-21T12:48:25.410Z,32.30
2023-03-21T12:50:59.116Z,32.40
2023-03-21T12:53:40.253Z,32.40
2023-03-21T12:56:16.773Z,32.40
2023-03-21T13:00:02.549Z,32.30
2023-03-21T13:02:37.523Z,32.20
2023-03-21T13:05:19.979Z,32.20
2023-03-21T13:07:56.769Z,32.10
2023-03-21T13:10:29.390Z,32.10
2023-03-21T13:13:18.226Z,32.10
2023-03-21T13:16:04.874Z,32.00
2023-03-21T13:19:01.847Z,32.00
2023-03-21T13:21:46.101Z,31.70
2023-03-21T13:24:32.543Z,31.80
2023-03-21T13:27:09.580Z,31.80
2023-03-21T13:29:51.637Z,31.70
2023-03-21T13:32:29.793Z,31.70
2023-03-21T13:35:04.370Z,31.60
2023-03-21T13:37:41.970Z,31.60
2023-03-21T13:40:25.711Z,31.50
2023-03-21T13:42:59.750Z,31.60
2023-03-21T13:45:35.549Z,31.20
2023-03-21T13:48:09.720Z,31.00
2023-03-21T13:51:03.207Z,30.90
2023-03-21T13:53:39.043Z,30.80
2023-03-21T13:56:51.540Z,30.90
2023-03-21T13:59:39.132Z,30.80
2023-03-21T14:02:30.973Z,31.50
2023-03-21T14:05:23.449Z,30.70
2023-03-21T14:08:06.069Z,30.60
2023-03-21T14:10:44.748Z,30.80
2023-03-21T14:13:20.778Z,30.60
2023-03-21T14:15:56.731Z,30.60
2023-03-21T14:18:52.878Z,30.60
2023-03-21T14:21:25.293Z,30.60
2023-03-21T14:24:01.304Z,30.50
2023-03-21T14:26:35.500Z,30.50
2023-03-21T14:29:23.054Z,30.40
2023-03-21T14:31:57.204Z,30.30
2023-03-21T14:34:30.117Z,30.50
2023-03-21T14:37:03.484Z,30.20
2023-03-21T14:39:36.549Z,30.20
2023-03-21T14:42:10.523Z,30.30
2023-03-21T14:44:58.127Z,30.20
2023-03-21T14:47:34.144Z,30.30
2023-03-21T14:50:07.352Z,30.30
2023-03-21T14:52:45.496Z,30.20
2023-03-21T14:55:19.111Z,30.10
2023-03-21T14:57:53.413Z,29.80
2023-03-21T15:00:29.769Z,29.80
2023-03-21T15:03:04.070Z,29.90
2023-03-21T15:05:39.318Z,30.00
2023-03-21T15:08:20.221Z,30.00
2023-03-21T15:11:07.313Z,30.00
2023-03-21T15:13:42.502Z,30.00
2023-03-21T15:16:15.112Z,30.20
2023-03-21T15:18:50.385Z,30.10
2023-03-21T15:21:27.083Z,30.10
2023-03-21T15:24:14.377Z,30.10
2023-03-21T15:26:50.753Z,30.10
2023-03-21T15:29:23.600Z,30.10
2023-03-21T15:31:56.274Z,30.20
2023-03-21T15:34:34.196Z,30.20
2023-03-21T15:37:10.546Z,30.20
2023-03-21T15:39:45.818Z,30.30
2023-03-21T15:42:30.606Z,30.40
2023-03-21T15:45:05.444Z,30.20
2023-03-21T15:47:43.259Z,30.10
2023-03-21T15:50:27.553Z,30.10
2023-03-21T15:53:02.317Z,30.20
2023-03-21T15:55:39.893Z,30.30
2023-03-21T15:58:19.468Z,30.20
2023-03-21T16:00:55.433Z,30.30
2023-03-21T16:03:29.730Z,30.30
2023-03-21T16:06:18.533Z,30.30
2023-03-21T16:08:51.253Z,30.30
2023-03-21T16:11:29.079Z,30.30
2023-03-21T16:14:00.270Z,30.30
2023-03-21T16:16:32.626Z,30.40
2023-03-21T16:19:08.367Z,30.30
2023-03-21T16:21:39.914Z,30.40
2023-03-21T16:24:14.716Z,30.40
2023-03-21T16:26:54.514Z,30.50
2023-03-21T16:29:26.311Z,30.50
2023-03-21T16:31:58.069Z,30.50
2023-03-21T16:34:30.078Z,30.50
2023-03-21T16:37:01.831Z,30.60
2023-03-21T16:39:34.113Z,30.70
2023-03-21T16:42:07.631Z,30.70
2023-03-21T16:44:40.626Z,30.60
2023-03-21T16:47:20.968Z,30.50
2023-03-21T16:49:53.493Z,30.50
2023-03-21T16:52:26.492Z,30.60
2023-03-21T16:54:58.382Z,30.60
2023-03-21T16:57:34.300Z,30.70
2023-03-21T17:00:09.478Z,30.80
2023-03-21T17:02:40.906Z,30.90
2023-03-21T17:05:12.731Z,30.90
2023-03-21T17:07:45.154Z,31.00
2023-03-21T17:10:22.280Z,31.00
2023-03-21T17:12:56.249Z,31.00
2023-03-21T17:15:33.818Z,31.00
2023-03-21T17:18:08.585Z,31.10
2023-03-21T17:20:42.555Z,31.10
2023-03-21T17:23:17.107Z,31.10
2023-03-21T17:25:48.440Z,31.20
2023-03-21T17:28:26.418Z,31.20
2023-03-21T17:31:01.026Z,31.30
2023-03-21T17:33:35.482Z,31.20
2023-03-21T17:36:08.577Z,31.00
2023-03-21T17:38:43.057Z,31.00
2023-03-21T17:41:18.348Z,30.90
2023-03-21T17:43:52.659Z,30.80
2023-03-21T17:46:26.446Z,30.80
2023-03-21T17:48:58.534Z,30.70
2023-03-21T17:51:31.400Z,30.70
2023-03-21T17:54:05.738Z,30.60
2023-03-21T17:56:42.054Z,30.80
2023-03-21T17:59:17.603Z,30.60
2023-03-21T18:01:49.578Z,30.60
2023-03-21T18:04:22.618Z,30.60
2023-03-21T18:06:55.049Z,30.60
2023-03-21T18:09:30.349Z,30.60
2023-03-21T18:12:01.971Z,30.60
2023-03-21T18:14:40.707Z,30.60
2023-03-21T18:17:14.466Z,30.60
2023-03-21T18:19:46.803Z,30.60
2023-03-21T18:22:22.472Z,30.60
2023-03-21T18:24:54.584Z,30.60
2023-03-21T18:27:32.560Z,30.60
2023-03-21T18:30:32.786Z,30.70
2023-03-21T18:33:01.800Z,30.70
2023-03-21T18:35:39.178Z,30.70
2023-03-21T18:38:12.380Z,30.70
2023-03-21T18:40:44.836Z,30.70
2023-03-21T18:43:59.200Z,30.70
2023-03-21T18:46:11.349Z,30.80
2023-03-21T18:48:44.086Z,30.80
2023-03-21T18:51:20.875Z,30.90
2023-03-21T18:53:56.322Z,30.90
2023-03-21T18:57:26.822Z,30.90
2023-03-21T18:59:27.466Z,30.90
2023-03-21T19:02:03.783Z,30.90
2023-03-21T19:04:37.532Z,30.90
2023-03-21T19:07:09.127Z,30.90
2023-03-21T19:10:05.317Z,30.90
2023-03-21T19:12:35.951Z,30.90
2023-03-21T19:15:09.957Z,30.90
2023-03-21T19:20:41.642Z,30.80
2023-03-21T19:23:13.629Z,30.80
2023-03-21T19:25:46.177Z,30.80
2023-03-21T19:28:18.474Z,30.80
2023-03-21T19:30:55.316Z,30.90
2023-03-21T19:33:29.326Z,30.90
2023-03-21T19:36:15.243Z,30.90
2023-03-21T19:38:49.943Z,30.90
2023-03-21T19:41:24.153Z,30.90
2023-03-21T19:43:56.937Z,30.90
2023-03-21T19:46:30.838Z,30.90
2023-03-21T19:49:08.223Z,30.90
2023-03-21T19:51:42.186Z,31.00
2023-03-21T19:54:15.535Z,30.90
2023-03-21T19:56:49.463Z,30.90
2023-03-21T19:59:22.252Z,30.90
2023-03-21T20:02:00.938Z,30.90
2023-03-21T20:04:49.380Z,30.90
2023-03-21T20:07:22.148Z,30.90
2023-03-21T20:10:01.936Z,30.90
2023-03-21T20:12:39.201Z,31.00
2023-03-21T20:15:19.608Z,30.90
2023-03-21T20:17:56.360Z,30.90
2023-03-21T20:20:37.415Z,31.00
2023-03-21T20:23:11.644Z,31.00
2023-03-21T20:25:47.783Z,31.00
2023-03-21T20:28:28.058Z,31.00
2023-03-21T20:31:01.477Z,31.00
2023-03-21T20:33:36.163Z,31.00
2023-03-21T20:39:09.789Z,31.00
2023-03-21T20:41:42.994Z,31.00
2023-03-21T20:47:07.887Z,31.10
2023-03-21T20:49:41.079Z,31.00
2023-03-21T20:55:10.307Z,31.00
2023-03-21T20:57:45.030Z,31.00
2023-03-21T21:00:18.833Z,31.00
2023-03-21T21:02:53.289Z,31.00
2023-03-21T21:05:32.975Z,31.00
2023-03-21T21:08:10.809Z,31.00
2023-03-21T21:11:24.294Z,31.00
2023-03-21T21:13:38.371Z,31.00
2023-03-21T21:16:13.696Z,31.00
2023-03-21T21:18:48.429Z,31.00
2023-03-21T21:21:22.752Z,31.00
2023-03-21T21:23:58.440Z,31.00
2023-03-21T21:26:32.829Z,31.00
2023-03-21T21:29:10.105Z,31.10
2023-03-21T21:31:45.907Z,31.10
2023-03-21T21:34:19.267Z,31.10
2023-03-21T21:36:51.735Z,31.00
2023-03-21T21:39:27.771Z,31.10
2023-03-21T21:41:59.844Z,31.10
2023-03-21T21:44:32.362Z,31.10
2023-03-21T21:47:09.697Z,31.10
2023-03-21T21:49:44.413Z,31.10
2023-03-21T21:52:23.270Z,31.10
2023-03-21T21:54:59.576Z,31.10
2023-03-21T21:57:34.949Z,31.10
2023-03-21T22:00:14.617Z,31.10
2023-03-21T22:02:48.576Z,31.20
2023-03-21T22:05:21.833Z,31.10
2023-03-21T22:07:58.535Z,31.10
2023-03-21T22:10:33.934Z,31.10
2023-03-21T22:13:06.172Z,31.20
2023-03-21T22:15:38.410Z,31.20
2023-03-21T22:18:13.994Z,31.20
2023-03-21T22:20:45.979Z,31.20
2023-03-21T22:23:17.649Z,31.20
2023-03-21T22:25:55.242Z,31.20
2023-03-21T22:28:28.541Z,31.20
2023-03-21T22:31:00.844Z,31.30
2023-03-21T22:33:34.373Z,31.30
2023-03-21T22:36:09.919Z,31.30
2023-03-21T22:38:42.940Z,31.30
2023-03-21T22:41:16.728Z,31.30
2023-03-21T22:43:50.557Z,31.30
2023-03-21T22:46:22.295Z,31.30
2023-03-21T22:48:57.019Z,31.30
2023-03-21T22:51:29.288Z,31.30
2023-03-21T22:54:01.554Z,31.30
2023-03-21T22:56:35.816Z,31.30
2023-03-21T22:59:07.821Z,31.30
2023-03-21T23:01:41.078Z,31.30
2023-03-21T23:04:13.957Z,31.30
2023-03-21T23:06:46.981Z,31.40
2023-03-21T23:09:19.674Z,31.30
2023-03-21T23:11:53.766Z,31.40
2023-03-21T23:14:27.556Z,31.30
2023-03-21T23:17:03.838Z,31.40
2023-03-21T23:19:36.624Z,31.40
2023-03-21T23:22:11.887Z,31.40
2023-03-21T23:24:43.646Z,31.50
2023-03-21T23:27:19.659Z,31.40
2023-03-21T23:29:53.236Z,31.40
2023-03-21T23:32:26.024Z,31.40
2023-03-21T23:34:58.893Z,31.50
2023-03-21T23:37:32.638Z,31.40
2023-03-21T23:40:09.407Z,31.40
2023-03-21T23:42:43.723Z,31.40
2023-03-21T23:45:16.643Z,31.50
2023-03-21T23:47:49.211Z,31.50
2023-03-21T23:50:22.502Z,31.50
2023-03-21T23:52:57.241Z,31.50
2023-03-21T23:55:29.465Z,31.50
2023-03-21T23:58:06.832Z,31.50
